Startpagina
METAR-TAF:

METAR-TAF

Vliegvelden :

Vliegbasis Gilze-Rijen

Gilze-Rijen, Nederland

breedte: 51-34N, lengte: 004-56E, hoogte: 15 m

Actueel weer

Dit bericht is 20 minuten geleden gemaakt, om 12:55 UTC
Wind 15 kt uit het westzuidwesten met uitschieters tot 27 kt, variërend tussen het zuidwesten en het westnoordwesten
Temperatuur 12°C
Vochtigheid 76%
Druk 1022 hPa
Zicht 10 km of meer
Gebroken wolken op 1600 ft
Gebroken wolken op 2000 ft
Geheel bewolkt op 2500 ft

METAR: EHGR 291255Z AUTO 25015G27KT 220V290 9999 BKN016 BKN020 OVC025 12/08 Q1022 WHT

Tijdstip: 14:15 (13:15 UTC)

Verwachting

Dit bericht is 3 minuten geleden gemaakt, om 13:12 UTC
Verwachting geldig van 28 om 14 UTC tot 29 om 02 UTC
Wind 7 kt uit het westzuidwesten
Zicht 10 km of meer
Verspreide wolken op 1800 ft
Wijzigt naar
van 28 om 14 UTC tot 28 om 16 UTC
Wind 10 kt uit het westzuidwesten
Verspreide wolken op 800 ft
Gebroken wolken op 1500 ft

TAF: EHGR 281312Z 2814/2902 25007KT 9999 SCT018 BECMG 2814/2816 24010KT SCT008 BKN015

Waarnemingen en weersverwachtingen van meer dan 4000 vliegvelden (METAR en TAF).

De beschikbare stations zijn de gele en rode punten op de kaart.

Ga met uw muis naar het station om de naam te zien.

Klik dan om waarnemingen en weersverwachtingen te zien.

kaart wijzigen: klik op de groene knoppen met een zwart kruis om in te zoomen, op de groene knop met een streepje om uit te zoomen of op de groene pijlen voor aangrenzende kaarten.


METAR-TAF: